createdAt,value
2022-11-28T00:01:39.081Z,7.53
2022-11-28T00:04:08.034Z,6.90
2022-11-28T00:06:38.382Z,6.75
2022-11-28T00:09:08.480Z,6.53
2022-11-28T00:11:37.100Z,6.80
2022-11-28T00:14:05.365Z,7.80
2022-11-28T00:16:33.832Z,7.47
2022-11-28T00:19:03.876Z,8.10
2022-11-28T00:21:32.281Z,7.35
2022-11-28T00:24:00.818Z,7.10
2022-11-28T00:26:32.713Z,7.10
2022-11-28T00:29:04.152Z,6.63
2022-11-28T00:31:35.673Z,7.43
2022-11-28T00:34:04.335Z,6.68
2022-11-28T00:36:32.387Z,6.50
2022-11-28T00:39:00.513Z,7.68
2022-11-28T00:41:31.494Z,7.00
2022-11-28T00:43:59.848Z,6.43
2022-11-28T00:46:28.406Z,7.40
2022-11-28T00:48:56.662Z,7.68
2022-11-28T00:51:27.131Z,6.57
2022-11-28T00:53:57.728Z,7.78
2022-11-28T00:56:27.756Z,6.00
2022-11-28T00:58:58.086Z,5.20
2022-11-28T01:01:28.910Z,7.43
2022-11-28T01:03:59.594Z,6.40
2022-11-28T01:06:29.829Z,6.70
2022-11-28T01:09:00.166Z,6.30
2022-11-28T01:11:29.413Z,6.60
2022-11-28T01:14:01.453Z,7.10
2022-11-28T01:16:30.598Z,6.53
2022-11-28T01:18:58.793Z,6.45
2022-11-28T01:21:27.170Z,5.95
2022-11-28T01:23:55.250Z,5.95
2022-11-28T01:26:25.011Z,6.70
2022-11-28T01:28:53.242Z,5.40
2022-11-28T01:31:24.356Z,6.47
2022-11-28T01:33:53.513Z,7.30
2022-11-28T01:36:23.137Z,6.93
2022-11-28T01:38:51.804Z,6.57
2022-11-28T01:41:25.278Z,6.32
2022-11-28T01:44:08.106Z,6.25
2022-11-28T01:46:38.074Z,6.25
2022-11-28T01:49:15.303Z,5.00
2022-11-28T01:51:47.776Z,6.55
2022-11-28T01:54:18.006Z,6.35
2022-11-28T01:56:51.268Z,7.35
2022-11-28T01:59:21.002Z,5.55
2022-11-28T02:01:53.439Z,5.90
2022-11-28T02:04:21.672Z,8.45
2022-11-28T02:06:50.054Z,7.28
2022-11-28T02:09:18.269Z,5.95
2022-11-28T02:12:07.656Z,5.32
2022-11-28T02:14:51.397Z,6.85
2022-11-28T02:17:36.032Z,6.05
2022-11-28T02:20:32.274Z,8.38
2022-11-28T02:23:08.697Z,5.78
2022-11-28T02:26:10.257Z,7.00
2022-11-28T02:29:00.377Z,5.47
2022-11-28T02:31:57.436Z,5.65
2022-11-28T02:34:33.282Z,5.57
2022-11-28T02:37:08.591Z,5.20
2022-11-28T02:39:46.456Z,6.00
2022-11-28T02:42:20.098Z,6.35
2022-11-28T02:44:56.714Z,6.68
2022-11-28T02:47:32.517Z,5.85
2022-11-28T02:50:06.454Z,6.55
2022-11-28T02:52:40.432Z,6.00
2022-11-28T02:55:10.108Z,6.40
2022-11-28T02:57:39.886Z,7.22
2022-11-28T03:00:29.421Z,6.90
2022-11-28T03:03:19.107Z,6.40
2022-11-28T03:05:53.093Z,7.63
2022-11-28T03:08:54.431Z,7.40
2022-11-28T03:11:36.033Z,7.00
2022-11-28T03:14:15.663Z,6.95
2022-11-28T03:16:49.337Z,7.68
2022-11-28T03:19:25.393Z,6.75
2022-11-28T03:22:04.061Z,7.13
2022-11-28T03:24:36.947Z,7.97
2022-11-28T03:27:09.811Z,6.38
2022-11-28T03:29:42.492Z,6.90
2022-11-28T03:32:15.559Z,7.25
2022-11-28T03:34:48.782Z,7.15
2022-11-28T03:37:21.368Z,7.13
2022-11-28T03:39:55.321Z,8.25
2022-11-28T03:42:25.939Z,8.07
2022-11-28T03:44:57.816Z,9.70
2022-11-28T03:47:31.407Z,9.88
2022-11-28T03:50:06.066Z,10.20
2022-11-28T03:52:38.117Z,9.85
2022-11-28T03:55:12.434Z,9.45
2022-11-28T03:57:46.328Z,10.10
2022-11-28T04:00:15.820Z,11.23
2022-11-28T04:02:54.047Z,10.20
2022-11-28T04:05:29.776Z,10.75
2022-11-28T04:08:04.860Z,10.10
2022-11-28T04:10:37.208Z,10.85
2022-11-28T04:13:13.969Z,11.20
2022-11-28T04:15:48.761Z,10.82
2022-11-28T04:18:22.445Z,10.13
2022-11-28T04:20:59.464Z,11.48
2022-11-28T04:23:29.410Z,10.63
2022-11-28T04:26:02.715Z,11.25
2022-11-28T04:28:34.996Z,10.95
2022-11-28T04:31:07.075Z,12.10
2022-11-28T04:33:39.170Z,11.43
2022-11-28T04:36:11.788Z,12.00
2022-11-28T04:38:43.107Z,10.00
2022-11-28T04:41:16.713Z,10.90
2022-11-28T04:43:49.066Z,11.07
2022-11-28T04:46:25.117Z,10.25
2022-11-28T04:48:53.313Z,10.23
2022-11-28T04:51:27.550Z,9.82
2022-11-28T04:54:02.551Z,10.80
2022-11-28T04:56:40.252Z,9.60
2022-11-28T04:59:10.029Z,9.95
2022-11-28T05:01:40.092Z,10.90
2022-11-28T05:04:08.862Z,11.57
2022-11-28T05:06:38.631Z,10.75
2022-11-28T05:09:06.961Z,11.00
2022-11-28T05:11:35.263Z,9.63
2022-11-28T05:14:03.502Z,10.40
2022-11-28T05:16:31.783Z,10.70
2022-11-28T05:19:00.209Z,10.65
2022-11-28T05:21:28.321Z,10.63
2022-11-28T05:23:57.866Z,11.18
2022-11-28T05:26:26.325Z,10.48
2022-11-28T05:28:54.652Z,10.40
2022-11-28T05:31:23.023Z,10.05
2022-11-28T05:33:51.456Z,10.38
2022-11-28T05:36:19.667Z,10.05
2022-11-28T05:38:48.506Z,10.75
2022-11-28T05:41:21.962Z,10.95
2022-11-28T05:43:50.068Z,10.52
2022-11-28T05:46:18.951Z,10.55
2022-11-28T05:48:47.694Z,11.05
2022-11-28T05:51:16.024Z,9.05
2022-11-28T05:53:44.549Z,11.13
2022-11-28T05:56:15.618Z,10.30
2022-11-28T05:58:46.208Z,11.32
2022-11-28T06:01:18.852Z,12.25
2022-11-28T06:03:48.092Z,10.05
2022-11-28T06:06:18.772Z,10.70
2022-11-28T06:08:47.958Z,11.60
2022-11-28T06:11:16.689Z,11.48
2022-11-28T06:13:48.224Z,11.30
2022-11-28T06:16:18.227Z,13.32
2022-11-28T06:18:46.382Z,10.70
2022-11-28T06:21:18.978Z,10.18
2022-11-28T06:23:47.101Z,10.95
2022-11-28T06:26:17.944Z,10.43
2022-11-28T06:28:47.671Z,10.82
2022-11-28T06:31:18.042Z,11.77
2022-11-28T06:33:46.683Z,11.38
2022-11-28T06:36:16.492Z,11.25
2022-11-28T06:38:45.234Z,10.65
2022-11-28T06:41:15.557Z,12.27
2022-11-28T06:43:44.131Z,9.70
2022-11-28T06:46:16.411Z,11.70
2022-11-28T06:48:47.082Z,11.00
2022-11-28T06:51:16.187Z,12.90
2022-11-28T06:53:44.698Z,11.93
2022-11-28T06:56:15.115Z,12.48
2022-11-28T06:58:44.037Z,10.88
2022-11-28T07:01:15.818Z,11.70
2022-11-28T07:03:44.746Z,8.85
2022-11-28T07:06:13.575Z,11.45
2022-11-28T07:08:42.333Z,11.68
2022-11-28T07:11:13.051Z,12.05
2022-11-28T07:13:42.256Z,11.68
2022-11-28T07:16:16.452Z,11.82
2022-11-28T07:18:44.942Z,13.73
2022-11-28T07:21:14.682Z,10.77
2022-11-28T07:23:47.270Z,12.18
2022-11-28T07:26:19.586Z,12.13
2022-11-28T07:28:49.213Z,11.25
2022-11-28T07:31:21.210Z,12.35
2022-11-28T07:33:51.767Z,11.65
2022-11-28T07:36:21.937Z,11.50
2022-11-28T07:38:51.089Z,12.45
2022-11-28T07:41:23.762Z,11.48
2022-11-28T07:43:56.562Z,10.80
2022-11-28T07:46:27.974Z,12.35
2022-11-28T07:48:56.649Z,10.57
2022-11-28T07:51:26.830Z,11.13
2022-11-28T07:53:56.473Z,13.52
2022-11-28T07:56:39.480Z,12.35
2022-11-28T07:59:16.489Z,11.45
2022-11-28T08:01:46.264Z,12.85
2022-11-28T08:04:16.674Z,12.98
2022-11-28T08:06:45.069Z,11.90
2022-11-28T08:09:14.711Z,10.55
2022-11-28T08:11:43.360Z,13.57
2022-11-28T08:14:11.605Z,12.15
2022-11-28T08:16:44.965Z,11.85
2022-11-28T08:19:15.012Z,12.80
2022-11-28T08:21:43.887Z,12.20
2022-11-28T08:24:13.238Z,12.23
2022-11-28T08:26:41.507Z,12.77
2022-11-28T08:29:11.004Z,12.20
2022-11-28T08:31:42.891Z,11.95
2022-11-28T08:34:12.795Z,13.00
2022-11-28T08:36:43.381Z,11.35
2022-11-28T08:39:27.788Z,12.75
2022-11-28T08:41:58.932Z,10.93
2022-11-28T08:44:30.376Z,12.18
2022-11-28T08:47:00.137Z,12.73
2022-11-28T08:49:30.636Z,12.10
2022-11-28T08:52:02.863Z,12.75
2022-11-28T08:54:31.498Z,14.77
2022-11-28T08:57:01.395Z,14.88
2022-11-28T08:59:29.809Z,13.57
2022-11-28T09:01:58.879Z,13.20
2022-11-28T09:04:26.958Z,13.13
2022-11-28T09:06:55.461Z,12.32
2022-11-28T09:09:31.452Z,14.15
2022-11-28T09:12:01.264Z,13.32
2022-11-28T09:14:29.397Z,11.77
2022-11-28T09:16:57.779Z,12.35
2022-11-28T09:19:28.580Z,11.95
2022-11-28T09:21:58.080Z,12.27
2022-11-28T09:24:28.158Z,12.43
2022-11-28T09:26:56.304Z,12.55
2022-11-28T09:29:24.339Z,11.82
2022-11-28T09:31:52.511Z,10.90
2022-11-28T09:34:21.359Z,12.20
2022-11-28T09:36:50.217Z,13.65
2022-11-28T09:39:19.005Z,12.02
2022-11-28T09:42:03.660Z,11.77
2022-11-28T09:44:38.825Z,12.18
2022-11-28T09:47:14.813Z,10.18
2022-11-28T09:49:48.596Z,11.68
2022-11-28T09:52:27.885Z,12.32
2022-11-28T09:55:10.980Z,11.68
2022-11-28T09:57:45.293Z,12.95
2022-11-28T10:00:18.821Z,11.23
2022-11-28T10:03:03.226Z,10.43
2022-11-28T10:05:38.833Z,12.68
2022-11-28T10:08:25.803Z,12.85
2022-11-28T10:11:01.855Z,10.75
2022-11-28T10:14:06.656Z,11.95
2022-11-28T10:16:43.165Z,11.30
2022-11-28T10:19:46.049Z,11.65
2022-11-28T10:22:14.640Z,12.25
2022-11-28T10:24:48.005Z,11.73
2022-11-28T10:27:21.306Z,11.70
2022-11-28T10:30:01.229Z,11.70
2022-11-28T10:32:35.664Z,11.35
2022-11-28T10:35:07.473Z,10.68
2022-11-28T10:37:37.956Z,12.93
2022-11-28T10:40:19.134Z,11.98
2022-11-28T10:42:52.527Z,11.68
2022-11-28T10:45:28.859Z,14.40
2022-11-28T10:48:39.133Z,12.52
2022-11-28T10:51:19.937Z,14.70
2022-11-28T10:54:01.512Z,15.05
2022-11-28T10:56:38.796Z,11.10
2022-11-28T10:59:18.735Z,10.70
2022-11-28T11:01:51.130Z,10.52
2022-11-28T11:04:23.029Z,11.35
2022-11-28T11:07:16.145Z,11.55
2022-11-28T11:09:46.553Z,12.20
2022-11-28T11:12:21.363Z,11.77
2022-11-28T11:14:49.602Z,12.40
2022-11-28T11:17:36.711Z,10.70
2022-11-28T11:20:28.194Z,12.50
2022-11-28T11:22:57.221Z,12.60
2022-11-28T11:25:26.653Z,11.85
2022-11-28T11:27:57.383Z,11.90
2022-11-28T11:30:29.161Z,11.45
2022-11-28T11:33:00.726Z,11.95
2022-11-28T11:35:30.794Z,12.70
2022-11-28T11:38:19.160Z,12.75
2022-11-28T11:40:47.898Z,12.85
2022-11-28T11:43:27.952Z,11.13
2022-11-28T11:46:08.494Z,13.27
2022-11-28T11:48:41.119Z,12.95
2022-11-28T11:51:22.977Z,11.75
2022-11-28T11:54:03.340Z,12.25
2022-11-28T11:56:35.634Z,14.02
2022-11-28T11:59:11.731Z,14.50
2022-11-28T12:01:41.633Z,12.77
2022-11-28T12:04:43.756Z,12.68
2022-11-28T12:07:21.369Z,12.80
2022-11-28T12:09:54.657Z,13.30
2022-11-28T12:12:26.667Z,12.48
2022-11-28T12:14:54.991Z,11.55
2022-11-28T12:20:44.189Z,12.20
2022-11-28T12:23:34.812Z,10.88
2022-11-28T12:26:15.558Z,13.27
2022-11-28T12:28:55.893Z,11.52
2022-11-28T12:31:32.796Z,13.65
2022-11-28T12:34:13.523Z,13.40
2022-11-28T12:36:53.636Z,10.52
2022-11-28T12:39:37.416Z,13.02
2022-11-28T12:42:28.688Z,13.00
2022-11-28T12:45:17.120Z,13.27
2022-11-28T12:47:57.680Z,13.60
2022-11-28T12:50:35.349Z,13.55
2022-11-28T12:53:27.409Z,13.63
2022-11-28T12:56:02.319Z,12.70
2022-11-28T12:58:35.067Z,11.57
2022-11-28T13:01:14.981Z,13.30
2022-11-28T13:04:01.179Z,13.05
2022-11-28T13:06:39.261Z,13.85
2022-11-28T13:09:26.437Z,12.88
2022-11-28T13:12:04.508Z,13.75
2022-11-28T13:14:43.958Z,12.07
2022-11-28T13:17:23.726Z,12.55
2022-11-28T13:20:00.505Z,14.65
2022-11-28T13:22:39.380Z,15.15
2022-11-28T13:25:20.969Z,13.50
2022-11-28T13:27:59.773Z,13.00
2022-11-28T13:30:36.280Z,13.40
2022-11-28T13:33:13.611Z,14.05
2022-11-28T13:35:43.800Z,13.20
2022-11-28T13:38:36.930Z,14.98
2022-11-28T13:41:28.818Z,15.02
2022-11-28T13:44:05.389Z,13.93
2022-11-28T13:46:35.030Z,14.10
2022-11-28T13:49:14.731Z,13.20
2022-11-28T13:51:43.577Z,13.50
2022-11-28T13:54:43.005Z,13.75
2022-11-28T13:57:21.975Z,14.82
2022-11-28T13:59:57.705Z,13.43
2022-11-28T14:02:37.370Z,13.82
2022-11-28T14:05:18.735Z,13.02
2022-11-28T14:07:52.027Z,13.27
2022-11-28T14:10:35.441Z,14.05
2022-11-28T14:13:25.393Z,14.80
2022-11-28T14:16:07.836Z,14.00
2022-11-28T14:18:58.108Z,16.00
2022-11-28T14:21:40.181Z,15.18
2022-11-28T14:24:17.949Z,16.10
2022-11-28T14:26:47.320Z,15.68
2022-11-28T14:29:34.158Z,15.07
2022-11-28T14:34:51.319Z,16.52
2022-11-28T14:37:52.107Z,16.20
2022-11-28T14:40:56.680Z,17.27
2022-11-28T14:43:28.472Z,15.55
2022-11-28T14:46:32.047Z,16.77
2022-11-28T14:49:21.785Z,14.73
2022-11-28T14:52:39.095Z,16.33
2022-11-28T14:55:22.216Z,16.52
2022-11-28T14:58:00.022Z,15.43
2022-11-28T15:00:32.602Z,15.38
2022-11-28T15:03:17.853Z,16.08
2022-11-28T15:05:51.031Z,15.35
2022-11-28T15:08:47.413Z,13.40
2022-11-28T15:11:26.469Z,15.77
2022-11-28T15:14:08.949Z,13.80
2022-11-28T15:16:45.216Z,16.05
2022-11-28T15:19:27.087Z,13.93
2022-11-28T15:21:57.832Z,16.50
2022-11-28T15:24:30.441Z,16.67
2022-11-28T15:27:17.562Z,13.85
2022-11-28T15:29:54.807Z,14.85
2022-11-28T15:32:24.000Z,15.85
2022-11-28T15:35:01.216Z,16.15
2022-11-28T15:37:32.333Z,14.43
2022-11-28T15:40:03.742Z,13.93
2022-11-28T15:42:34.373Z,14.73
2022-11-28T15:45:09.703Z,16.48
2022-11-28T15:47:39.522Z,15.70
2022-11-28T15:50:20.149Z,17.10
2022-11-28T15:53:01.344Z,17.20
2022-11-28T15:55:32.653Z,15.02
2022-11-28T15:58:19.152Z,14.65
2022-11-28T16:00:51.890Z,16.88
2022-11-28T16:03:24.192Z,15.70
2022-11-28T16:05:56.030Z,15.98
2022-11-28T16:08:30.382Z,17.25
2022-11-28T16:10:59.460Z,15.43
2022-11-28T16:13:31.488Z,15.70
2022-11-28T16:16:01.547Z,14.43
2022-11-28T16:18:31.104Z,16.38
2022-11-28T16:21:02.295Z,14.90
2022-11-28T16:23:34.596Z,16.77
2022-11-28T16:26:04.830Z,16.48
2022-11-28T16:28:34.646Z,16.73
2022-11-28T16:31:03.190Z,14.90
2022-11-28T16:33:42.552Z,15.20
2022-11-28T16:36:32.009Z,16.75
2022-11-28T16:39:09.303Z,15.63
2022-11-28T16:41:38.386Z,16.52
2022-11-28T16:44:08.590Z,16.33
2022-11-28T16:46:39.844Z,17.05
2022-11-28T16:49:17.575Z,13.77
2022-11-28T16:51:47.868Z,14.32
2022-11-28T16:54:31.514Z,14.82
2022-11-28T16:57:11.256Z,15.43
2022-11-28T16:59:39.359Z,16.30
2022-11-28T17:02:15.654Z,15.02
2022-11-28T17:04:45.030Z,14.95
2022-11-28T17:07:16.770Z,16.35
2022-11-28T17:09:46.711Z,14.65
2022-11-28T17:12:22.950Z,13.43
2022-11-28T17:14:51.277Z,14.80
2022-11-28T17:17:23.217Z,14.35
2022-11-28T17:19:52.005Z,15.40
2022-11-28T17:22:24.880Z,16.80
2022-11-28T17:24:59.037Z,14.85
2022-11-28T17:27:27.381Z,15.20
2022-11-28T17:29:55.502Z,16.15
2022-11-28T17:32:24.078Z,15.30
2022-11-28T17:34:53.567Z,16.30
2022-11-28T17:37:23.045Z,15.18
2022-11-28T17:40:07.383Z,13.90
2022-11-28T17:42:35.447Z,13.48
2022-11-28T17:45:03.631Z,14.93
2022-11-28T17:47:31.844Z,14.15
2022-11-28T17:50:00.170Z,16.25
2022-11-28T17:52:31.008Z,13.77
2022-11-28T17:55:06.860Z,15.02
2022-11-28T17:57:36.421Z,16.08
2022-11-28T18:00:06.621Z,15.18
2022-11-28T18:02:42.136Z,13.68
2022-11-28T18:05:10.985Z,16.05
2022-11-28T18:07:42.291Z,15.20
2022-11-28T18:10:12.848Z,16.27
2022-11-28T18:12:40.914Z,14.55
2022-11-28T18:15:11.478Z,15.48
2022-11-28T18:17:39.978Z,13.40
2022-11-28T18:20:10.047Z,16.20
2022-11-28T18:22:38.664Z,15.75
2022-11-28T18:25:09.839Z,15.40
2022-11-28T18:27:38.494Z,15.00
2022-11-28T18:30:08.769Z,15.15
2022-11-28T18:32:37.092Z,14.88
2022-11-28T18:35:05.659Z,16.40
2022-11-28T18:37:33.698Z,15.07
2022-11-28T18:40:06.293Z,15.65
2022-11-28T18:42:38.466Z,15.35
2022-11-28T18:45:07.837Z,16.33
2022-11-28T18:47:36.057Z,13.82
2022-11-28T18:50:04.502Z,15.02
2022-11-28T18:52:32.725Z,15.02
2022-11-28T18:55:00.733Z,16.58
2022-11-28T18:57:32.817Z,16.73
2022-11-28T19:00:02.938Z,16.35
2022-11-28T19:02:33.151Z,15.30
2022-11-28T19:05:01.729Z,13.50
2022-11-28T19:07:30.353Z,15.50
2022-11-28T19:10:01.866Z,14.98
2022-11-28T19:12:30.076Z,14.32
2022-11-28T19:15:02.722Z,16.27
2022-11-28T19:17:34.908Z,16.10
2022-11-28T19:20:05.744Z,14.45
2022-11-28T19:22:36.011Z,15.77
2022-11-28T19:25:04.350Z,17.65
2022-11-28T19:27:32.432Z,15.93
2022-11-28T19:30:00.872Z,14.77
2022-11-28T19:32:32.658Z,12.02
2022-11-28T19:35:00.994Z,14.18
2022-11-28T19:37:29.229Z,15.88
2022-11-28T19:40:02.186Z,14.77
2022-11-28T19:42:31.472Z,15.43
2022-11-28T19:44:59.720Z,13.50
2022-11-28T19:47:28.679Z,14.18
2022-11-28T19:49:58.128Z,16.10
2022-11-28T19:52:26.292Z,14.38
2022-11-28T19:54:54.585Z,15.00
2022-11-28T19:57:24.077Z,18.08
2022-11-28T19:59:53.724Z,14.90
2022-11-28T20:02:23.511Z,16.00
2022-11-28T20:04:52.226Z,14.75
2022-11-28T20:07:22.289Z,16.45
2022-11-28T20:09:50.818Z,16.02
2022-11-28T20:12:19.160Z,17.20
2022-11-28T20:14:47.289Z,16.52
2022-11-28T20:17:16.227Z,15.27
2022-11-28T20:19:46.026Z,15.50
2022-11-28T20:22:14.617Z,15.38
2022-11-28T20:24:44.196Z,16.02
2022-11-28T20:27:12.419Z,17.35
2022-11-28T20:29:40.607Z,16.05
2022-11-28T20:32:10.141Z,16.60
2022-11-28T20:34:44.238Z,17.25
2022-11-28T20:37:12.664Z,16.52
2022-11-28T20:39:41.118Z,16.45
2022-11-28T20:42:10.837Z,17.17
2022-11-28T20:44:39.075Z,15.88
2022-11-28T20:47:08.266Z,16.33
2022-11-28T20:49:36.481Z,14.88
2022-11-28T20:52:04.930Z,17.75
2022-11-28T20:54:33.329Z,18.90
2022-11-28T20:59:52.494Z,16.95
2022-11-28T21:02:20.685Z,17.70
2022-11-28T21:04:48.839Z,16.63
2022-11-28T21:07:18.572Z,19.00
2022-11-28T21:09:47.055Z,17.40
2022-11-28T21:12:20.659Z,17.00
2022-11-28T21:14:49.153Z,15.25
2022-11-28T21:17:18.504Z,17.02
2022-11-28T21:19:47.056Z,17.20
2022-11-28T21:22:15.060Z,16.20
2022-11-28T21:24:44.942Z,15.95
2022-11-28T21:27:12.985Z,19.02
2022-11-28T21:29:43.013Z,16.13
2022-11-28T21:32:13.654Z,16.38
2022-11-28T21:34:45.957Z,17.02
2022-11-28T21:37:16.441Z,16.65
2022-11-28T21:39:44.766Z,16.00
2022-11-28T21:42:18.928Z,17.17
2022-11-28T21:44:48.996Z,15.95
2022-11-28T21:47:16.962Z,15.38
2022-11-28T21:49:46.718Z,16.77
2022-11-28T21:52:16.591Z,18.95
2022-11-28T21:54:45.732Z,16.40
2022-11-28T21:57:16.413Z,17.95
2022-11-28T21:59:44.948Z,18.88
2022-11-28T22:02:15.849Z,17.80
2022-11-28T22:04:44.631Z,17.65
2022-11-28T22:07:15.053Z,17.95
2022-11-28T22:09:43.441Z,15.88
2022-11-28T22:12:11.378Z,16.10
2022-11-28T22:14:39.486Z,18.00
2022-11-28T22:17:07.656Z,17.05
2022-11-28T22:19:35.935Z,18.27
2022-11-28T22:22:04.309Z,17.05
2022-11-28T22:24:34.563Z,18.27
2022-11-28T22:27:05.635Z,17.70
2022-11-28T22:29:36.967Z,17.55
2022-11-28T22:32:05.717Z,16.15
2022-11-28T22:34:39.480Z,16.33
2022-11-28T22:37:08.838Z,17.80
2022-11-28T22:39:39.489Z,17.48
2022-11-28T22:42:07.772Z,17.42
2022-11-28T22:44:35.818Z,17.60
2022-11-28T22:47:03.918Z,17.90
2022-11-28T22:49:31.957Z,16.98
2022-11-28T22:52:00.270Z,16.00
2022-11-28T22:54:28.811Z,17.50
2022-11-28T22:56:58.235Z,17.30
2022-11-28T22:59:27.027Z,17.27
2022-11-28T23:01:55.412Z,16.90
2022-11-28T23:04:23.587Z,18.45
2022-11-28T23:06:52.443Z,15.30
2022-11-28T23:09:21.175Z,17.75
2022-11-28T23:11:50.004Z,16.58
2022-11-28T23:14:20.506Z,19.40
2022-11-28T23:16:49.607Z,19.55
2022-11-28T23:19:20.111Z,15.85
2022-11-28T23:21:49.576Z,18.20
2022-11-28T23:24:19.864Z,16.85
2022-11-28T23:26:48.524Z,19.48
2022-11-28T23:29:17.052Z,16.38
2022-11-28T23:31:49.788Z,16.13
2022-11-28T23:34:18.023Z,17.60
2022-11-28T23:36:47.850Z,17.00
2022-11-28T23:39:17.800Z,15.85
2022-11-28T23:41:46.539Z,17.48
2022-11-28T23:44:16.490Z,18.50
2022-11-28T23:46:48.274Z,16.98
2022-11-28T23:49:18.359Z,18.13
2022-11-28T23:51:46.396Z,17.75
2022-11-28T23:54:14.616Z,18.55
2022-11-28T23:56:45.914Z,17.92
2022-11-28T23:59:16.509Z,18.05
